createdAt,value
2018-11-26T00:00:48.077Z,21.63
2018-11-26T00:03:16.899Z,21.13
2018-11-26T00:05:45.096Z,18.83
2018-11-26T00:08:14.125Z,20.93
2018-11-26T00:10:53.819Z,19.33
2018-11-26T00:13:22.060Z,19.73
2018-11-26T00:15:51.041Z,19.10
2018-11-26T00:18:19.359Z,20.67
2018-11-26T00:20:47.687Z,19.03
2018-11-26T00:23:15.933Z,19.97
2018-11-26T00:25:44.283Z,19.93
2018-11-26T00:28:12.660Z,19.30
2018-11-26T00:30:41.639Z,19.40
2018-11-26T00:33:09.828Z,20.17
2018-11-26T00:35:38.130Z,16.73
2018-11-26T00:38:06.356Z,19.90
2018-11-26T00:40:34.618Z,19.83
2018-11-26T00:43:02.893Z,20.47
2018-11-26T00:45:31.199Z,19.30
2018-11-26T00:48:00.159Z,19.07
2018-11-26T00:50:28.395Z,19.77
2018-11-26T00:52:56.652Z,18.57
2018-11-26T00:55:25.033Z,18.70
2018-11-26T00:57:53.404Z,18.90
2018-11-26T01:00:21.724Z,19.73
2018-11-26T01:02:50.038Z,19.07
2018-11-26T01:05:28.421Z,18.77
2018-11-26T01:07:56.691Z,18.60
2018-11-26T01:10:25.049Z,17.87
2018-11-26T01:12:53.357Z,18.67
2018-11-26T01:15:22.085Z,18.63
2018-11-26T01:17:50.360Z,18.30
2018-11-26T01:20:18.755Z,18.03
2018-11-26T01:22:47.053Z,19.27
2018-11-26T01:25:15.496Z,20.03
2018-11-26T01:27:43.731Z,17.90
2018-11-26T01:30:12.040Z,19.27
2018-11-26T01:32:40.423Z,18.40
2018-11-26T01:35:08.820Z,18.77
2018-11-26T01:37:37.118Z,17.93
2018-11-26T01:40:17.336Z,20.87
2018-11-26T01:42:46.317Z,20.27
2018-11-26T01:45:14.576Z,19.47
2018-11-26T01:47:42.948Z,20.57
2018-11-26T01:50:11.264Z,18.60
2018-11-26T01:52:39.479Z,19.07
2018-11-26T01:55:09.044Z,20.13
2018-11-26T01:57:39.775Z,19.50
2018-11-26T02:00:13.565Z,19.07
2018-11-26T02:02:42.578Z,20.17
2018-11-26T02:05:11.208Z,19.60
2018-11-26T02:07:39.500Z,20.40
2018-11-26T02:10:11.113Z,19.30
2018-11-26T02:12:39.388Z,20.27
2018-11-26T02:15:10.240Z,19.50
2018-11-26T02:17:39.604Z,19.80
2018-11-26T02:20:08.568Z,19.93
2018-11-26T02:22:36.852Z,19.03
2018-11-26T02:25:06.453Z,20.80
2018-11-26T02:27:34.724Z,18.60
2018-11-26T02:30:03.005Z,19.43
2018-11-26T02:32:31.404Z,21.00
2018-11-26T02:34:59.721Z,19.43
2018-11-26T02:37:28.096Z,19.27
2018-11-26T02:39:56.454Z,19.50
2018-11-26T02:42:24.736Z,17.87
2018-11-26T02:44:53.019Z,18.57
2018-11-26T02:47:22.261Z,17.40
2018-11-26T02:49:50.511Z,20.80
2018-11-26T02:52:19.057Z,17.63
2018-11-26T02:54:47.376Z,19.53
2018-11-26T02:57:15.728Z,18.27
2018-11-26T02:59:44.064Z,19.83
2018-11-26T03:02:12.325Z,19.07
2018-11-26T03:04:40.597Z,19.67
2018-11-26T03:07:08.879Z,19.47
2018-11-26T03:09:37.620Z,20.10
2018-11-26T03:12:05.892Z,18.80
2018-11-26T03:14:34.258Z,20.17
2018-11-26T03:17:02.577Z,20.43
2018-11-26T03:19:30.812Z,22.90
2018-11-26T03:21:59.336Z,18.37
2018-11-26T03:24:27.567Z,19.47
2018-11-26T03:26:55.836Z,18.40
2018-11-26T03:29:24.169Z,18.17
2018-11-26T03:31:52.429Z,19.50
2018-11-26T03:34:20.636Z,19.53
2018-11-26T03:36:48.872Z,20.33
2018-11-26T03:39:17.187Z,20.80
2018-11-26T03:41:45.748Z,20.80
2018-11-26T03:44:14.082Z,18.63
2018-11-26T03:46:42.353Z,19.70
2018-11-26T03:49:10.630Z,19.07
2018-11-26T03:51:38.852Z,19.50
2018-11-26T03:54:07.189Z,18.87
2018-11-26T03:56:35.421Z,19.97
2018-11-26T03:59:03.702Z,20.30
2018-11-26T04:01:31.993Z,21.13
2018-11-26T04:04:00.269Z,20.30
2018-11-26T04:06:28.438Z,18.20
2018-11-26T04:08:56.585Z,19.77
2018-11-26T04:11:24.809Z,17.43
2018-11-26T04:13:53.112Z,20.63
2018-11-26T04:16:22.385Z,20.97
2018-11-26T04:18:53.804Z,22.87
2018-11-26T04:21:22.078Z,18.40
2018-11-26T04:23:50.439Z,19.70
2018-11-26T04:26:18.744Z,20.23
2018-11-26T04:28:47.020Z,17.93
2018-11-26T04:31:15.336Z,19.93
2018-11-26T04:33:43.572Z,20.13
2018-11-26T04:36:11.880Z,19.57
2018-11-26T04:38:40.133Z,20.93
2018-11-26T04:41:08.460Z,18.83
2018-11-26T04:43:36.692Z,19.13
2018-11-26T04:46:05.781Z,19.33
2018-11-26T04:48:34.648Z,20.30
2018-11-26T04:51:02.897Z,19.47
2018-11-26T04:53:31.461Z,21.00
2018-11-26T04:55:59.795Z,19.10
2018-11-26T04:58:28.032Z,19.50
2018-11-26T05:00:56.284Z,18.70
2018-11-26T05:03:24.480Z,19.47
2018-11-26T05:05:53.696Z,20.87
2018-11-26T05:08:21.969Z,18.10
2018-11-26T05:10:51.208Z,20.00
2018-11-26T05:13:19.447Z,21.07
2018-11-26T05:15:47.748Z,21.00
2018-11-26T05:18:16.572Z,18.50
2018-11-26T05:20:45.374Z,19.33
2018-11-26T05:23:13.637Z,20.83
2018-11-26T05:25:41.901Z,19.43
2018-11-26T05:28:10.716Z,19.67
2018-11-26T05:30:39.836Z,19.67
2018-11-26T05:33:08.120Z,19.30
2018-11-26T05:35:36.429Z,21.73
2018-11-26T05:38:04.864Z,19.17
2018-11-26T05:40:33.075Z,19.17
2018-11-26T05:43:01.372Z,20.70
2018-11-26T05:45:30.163Z,21.87
2018-11-26T05:47:58.455Z,22.47
2018-11-26T05:50:26.727Z,19.27
2018-11-26T05:52:55.068Z,20.60
2018-11-26T05:55:23.314Z,20.60
2018-11-26T05:57:51.513Z,21.57
2018-11-26T06:00:36.711Z,22.13
2018-11-26T06:03:05.305Z,20.90
2018-11-26T06:05:34.237Z,18.57
2018-11-26T06:08:02.581Z,21.27
2018-11-26T06:10:30.717Z,19.37
2018-11-26T06:12:59.088Z,20.53
2018-11-26T06:15:27.340Z,20.03
2018-11-26T06:17:55.568Z,20.10
2018-11-26T06:20:24.347Z,20.13
2018-11-26T06:22:52.713Z,19.60
2018-11-26T06:25:21.428Z,19.13
2018-11-26T06:27:50.184Z,20.50
2018-11-26T06:30:19.519Z,22.70
2018-11-26T06:32:47.939Z,20.90
2018-11-26T06:35:19.233Z,19.80
2018-11-26T06:37:47.596Z,19.90
2018-11-26T06:40:15.972Z,18.87
2018-11-26T06:42:44.217Z,20.83
2018-11-26T06:45:18.464Z,20.27
2018-11-26T06:47:46.728Z,20.50
2018-11-26T06:50:17.075Z,22.17
2018-11-26T06:52:45.833Z,18.90
2018-11-26T06:55:16.902Z,21.33
2018-11-26T06:57:48.151Z,20.30
2018-11-26T07:00:18.371Z,20.50
2018-11-26T07:02:46.731Z,20.60
2018-11-26T07:05:18.956Z,21.10
2018-11-26T07:07:47.223Z,18.47
2018-11-26T07:10:15.811Z,20.73
2018-11-26T07:12:44.077Z,20.00
2018-11-26T07:15:16.617Z,20.07
2018-11-26T07:17:44.904Z,20.33
2018-11-26T07:20:15.108Z,21.10
2018-11-26T07:22:43.891Z,22.00
2018-11-26T07:25:14.025Z,23.47
2018-11-26T07:27:42.956Z,21.67
2018-11-26T07:30:13.284Z,20.50
2018-11-26T07:32:42.064Z,20.43
2018-11-26T07:35:10.680Z,22.27
2018-11-26T07:37:38.920Z,20.80
2018-11-26T07:40:22.673Z,23.33
2018-11-26T07:42:52.603Z,21.33
2018-11-26T07:45:20.876Z,21.50
2018-11-26T07:47:50.080Z,20.77
2018-11-26T07:50:18.719Z,20.17
2018-11-26T07:52:46.982Z,19.17
2018-11-26T07:55:16.500Z,17.87
2018-11-26T07:57:44.859Z,18.83
2018-11-26T08:00:17.564Z,19.30
2018-11-26T08:02:46.870Z,20.07
2018-11-26T08:05:17.310Z,20.27
2018-11-26T08:07:45.539Z,22.00
2018-11-26T08:10:16.612Z,20.83
2018-11-26T08:12:45.407Z,21.07
2018-11-26T08:15:16.096Z,20.30
2018-11-26T08:17:44.402Z,21.87
2018-11-26T08:20:12.843Z,20.13
2018-11-26T08:22:41.152Z,19.67
2018-11-26T08:25:11.352Z,23.30
2018-11-26T08:27:40.204Z,21.83
2018-11-26T08:30:25.570Z,18.70
2018-11-26T08:32:56.820Z,19.73
2018-11-26T08:35:25.289Z,19.23
2018-11-26T08:37:58.872Z,18.70
2018-11-26T08:40:28.101Z,20.40
2018-11-26T08:43:15.360Z,18.60
2018-11-26T08:45:55.584Z,21.97
2018-11-26T08:48:31.021Z,18.63
2018-11-26T08:51:00.434Z,19.67
2018-11-26T08:53:28.745Z,18.07
2018-11-26T08:55:57.548Z,19.90
2018-11-26T08:58:25.880Z,18.70
2018-11-26T09:00:59.483Z,19.63
2018-11-26T09:04:34.792Z,18.23
2018-11-26T09:07:03.093Z,21.03
2018-11-26T09:09:32.883Z,18.47
2018-11-26T09:12:00.655Z,20.20
2018-11-26T09:14:28.873Z,21.13
2018-11-26T09:16:57.170Z,17.43
2018-11-26T09:19:25.476Z,18.10
2018-11-26T09:21:53.888Z,19.77
2018-11-26T09:24:22.104Z,20.00
2018-11-26T09:26:50.637Z,18.83
2018-11-26T09:29:18.910Z,16.47
2018-11-26T09:31:47.102Z,18.00
2018-11-26T09:34:15.352Z,18.50
2018-11-26T09:36:43.635Z,17.07
2018-11-26T09:39:11.947Z,17.63
2018-11-26T09:41:40.325Z,16.67
2018-11-26T09:44:08.620Z,15.83
2018-11-26T09:46:37.053Z,15.97
2018-11-26T09:49:05.488Z,16.10
2018-11-26T09:51:41.645Z,16.37
2018-11-26T09:54:02.018Z,16.33
2018-11-26T09:56:30.237Z,16.33
2018-11-26T09:58:59.039Z,16.03
2018-11-26T10:01:27.420Z,17.17
2018-11-26T10:03:56.156Z,20.07
2018-11-26T10:06:24.384Z,16.03
2018-11-26T10:08:52.676Z,18.60
2018-11-26T10:11:21.009Z,16.07
2018-11-26T10:13:49.313Z,15.57
2018-11-26T10:16:17.553Z,18.37
2018-11-26T10:18:45.720Z,17.53
2018-11-26T10:21:14.003Z,16.63
2018-11-26T10:23:42.308Z,16.63
2018-11-26T10:26:10.607Z,17.33
2018-11-26T10:28:38.832Z,16.90
2018-11-26T10:31:07.028Z,15.67
2018-11-26T10:33:35.262Z,15.17
2018-11-26T10:36:03.592Z,17.40
2018-11-26T10:38:31.857Z,16.50
2018-11-26T10:41:00.149Z,16.27
2018-11-26T10:43:35.539Z,15.23
2018-11-26T10:46:03.809Z,15.00
2018-11-26T10:48:32.067Z,14.70
2018-11-26T10:51:00.347Z,15.47
2018-11-26T10:53:28.555Z,14.63
2018-11-26T10:55:56.783Z,14.20
2018-11-26T10:58:25.056Z,14.67
2018-11-26T11:00:58.584Z,15.50
2018-11-26T11:03:27.344Z,13.90
2018-11-26T11:05:55.599Z,14.23
2018-11-26T11:08:23.922Z,14.07
2018-11-26T11:10:52.113Z,16.13
2018-11-26T11:13:21.321Z,14.03
2018-11-26T11:15:49.643Z,14.13
2018-11-26T11:18:17.883Z,15.33
2018-11-26T11:20:46.211Z,14.00
2018-11-26T11:23:14.469Z,14.20
2018-11-26T11:25:42.748Z,14.70
2018-11-26T11:28:10.978Z,14.50
2018-11-26T11:30:39.376Z,14.40
2018-11-26T11:35:35.429Z,15.07
2018-11-26T11:38:03.747Z,14.37
2018-11-26T11:40:32.165Z,18.63
2018-11-26T11:43:00.893Z,14.27
2018-11-26T11:45:29.924Z,13.63
2018-11-26T11:47:59.164Z,14.07
2018-11-26T11:50:27.466Z,14.43
2018-11-26T11:52:55.692Z,12.60
2018-11-26T11:55:24.977Z,13.03
2018-11-26T11:57:53.474Z,16.00
2018-11-26T12:00:43.445Z,15.37
2018-11-26T12:03:14.897Z,14.33
2018-11-26T12:05:43.177Z,12.07
2018-11-26T12:08:11.490Z,12.43
2018-11-26T12:10:39.709Z,12.33
2018-11-26T12:13:09.213Z,11.53
2018-11-26T12:15:40.036Z,12.90
2018-11-26T12:18:08.768Z,15.13
2018-11-26T12:20:37.260Z,13.13
2018-11-26T12:23:05.614Z,13.03
2018-11-26T12:25:33.864Z,13.40
2018-11-26T12:28:02.107Z,12.77
2018-11-26T12:30:32.062Z,15.47
2018-11-26T12:33:00.318Z,13.30
2018-11-26T12:35:28.663Z,13.57
2018-11-26T12:37:56.900Z,13.07
2018-11-26T12:40:26.069Z,14.20
2018-11-26T12:42:58.813Z,13.53
2018-11-26T12:45:29.286Z,12.97
2018-11-26T12:47:57.884Z,12.27
2018-11-26T12:50:26.296Z,12.87
2018-11-26T12:52:54.549Z,13.87
2018-11-26T12:55:23.404Z,12.80
2018-11-26T12:57:52.262Z,12.97
2018-11-26T13:00:27.436Z,14.47
2018-11-26T13:02:56.874Z,13.40
2018-11-26T13:05:25.389Z,13.53
2018-11-26T13:07:53.734Z,17.23
2018-11-26T13:10:22.725Z,13.47
2018-11-26T13:12:51.349Z,13.03
2018-11-26T13:15:21.578Z,13.37
2018-11-26T13:17:49.888Z,13.43
2018-11-26T13:20:20.431Z,12.87
2018-11-26T13:22:48.886Z,13.83
2018-11-26T13:25:18.338Z,14.33
2018-11-26T13:27:49.770Z,16.27
2018-11-26T13:30:21.186Z,14.27
2018-11-26T13:32:51.818Z,12.97
2018-11-26T13:35:21.187Z,14.83
2018-11-26T13:37:50.539Z,15.50
2018-11-26T13:40:19.248Z,14.53
2018-11-26T13:42:47.566Z,15.40
2018-11-26T13:45:25.783Z,17.30
2018-11-26T13:47:54.161Z,15.33
2018-11-26T13:50:25.550Z,15.97
2018-11-26T13:52:53.829Z,15.20
2018-11-26T13:55:22.096Z,16.33
2018-11-26T13:57:50.381Z,14.67
2018-11-26T14:00:20.354Z,15.80
2018-11-26T14:02:48.757Z,16.50
2018-11-26T14:05:17.966Z,17.30
2018-11-26T14:07:46.637Z,16.80
2018-11-26T14:10:18.765Z,17.60
2018-11-26T14:12:48.815Z,20.37
2018-11-26T14:15:17.114Z,20.63
2018-11-26T14:17:45.472Z,18.33
2018-11-26T14:20:15.129Z,16.73
2018-11-26T14:22:50.076Z,16.63
2018-11-26T14:25:18.810Z,20.40
2018-11-26T14:27:47.922Z,17.30
2018-11-26T14:30:17.380Z,20.07
2018-11-26T14:32:45.674Z,19.40
2018-11-26T14:35:13.933Z,19.20
2018-11-26T14:37:42.661Z,19.07
2018-11-26T14:40:14.834Z,16.93
2018-11-26T14:42:43.537Z,21.83
2018-11-26T14:45:12.876Z,17.97
2018-11-26T14:47:41.302Z,20.23
2018-11-26T14:50:12.385Z,19.77
2018-11-26T14:52:41.134Z,21.03
2018-11-26T14:55:12.834Z,19.20
2018-11-26T14:57:41.143Z,20.70
2018-11-26T15:00:12.697Z,17.60
2018-11-26T15:02:41.013Z,20.70
2018-11-26T15:05:09.425Z,21.47
2018-11-26T15:07:37.725Z,27.37
2018-11-26T15:10:09.786Z,20.83
2018-11-26T15:12:38.055Z,20.70
2018-11-26T15:15:09.289Z,17.43
2018-11-26T15:17:37.787Z,18.43
2018-11-26T15:20:08.725Z,17.43
2018-11-26T15:22:36.981Z,17.23
2018-11-26T15:25:06.481Z,16.20
2018-11-26T15:27:34.695Z,19.30
2018-11-26T15:30:03.171Z,15.97
2018-11-26T15:32:31.449Z,17.77
2018-11-26T15:35:00.369Z,15.00
2018-11-26T15:37:28.771Z,15.10
2018-11-26T15:39:57.017Z,15.00
2018-11-26T15:42:25.233Z,15.27
2018-11-26T15:44:53.972Z,15.27
2018-11-26T15:47:21.849Z,17.23
2018-11-26T15:49:50.434Z,15.60
2018-11-26T15:52:18.810Z,14.87
2018-11-26T15:54:47.301Z,16.30
2018-11-26T15:57:16.016Z,15.63
2018-11-26T15:59:44.432Z,15.13
2018-11-26T16:02:12.629Z,16.50
2018-11-26T16:04:40.929Z,17.80
2018-11-26T16:07:09.165Z,16.83
2018-11-26T16:09:37.368Z,15.47
2018-11-26T16:12:11.189Z,18.53
2018-11-26T16:14:34.557Z,16.03
2018-11-26T16:17:02.842Z,17.00
2018-11-26T16:19:31.185Z,18.90
2018-11-26T16:21:59.720Z,18.90
2018-11-26T16:24:28.125Z,16.30
2018-11-26T16:26:56.381Z,15.70
2018-11-26T16:29:24.756Z,25.27
2018-11-26T16:31:53.062Z,14.57
2018-11-26T16:34:21.369Z,16.20
2018-11-26T16:36:52.577Z,18.47
2018-11-26T16:39:21.039Z,18.63
2018-11-26T16:41:49.473Z,18.33
2018-11-26T16:44:17.829Z,19.07
2018-11-26T16:46:46.082Z,21.90
2018-11-26T16:49:14.389Z,20.00
2018-11-26T16:51:42.610Z,20.47
2018-11-26T16:54:10.822Z,21.00
2018-11-26T16:56:39.061Z,25.00
2018-11-26T16:59:07.411Z,21.70
2018-11-26T17:01:35.679Z,22.93
2018-11-26T17:04:04.018Z,21.07
2018-11-26T17:06:32.341Z,23.33
2018-11-26T17:09:00.571Z,23.70
2018-11-26T17:11:28.817Z,23.40
2018-11-26T17:13:57.153Z,20.80
2018-11-26T17:16:25.356Z,27.37
2018-11-26T17:18:53.742Z,22.27
2018-11-26T17:21:22.446Z,25.20
2018-11-26T17:23:50.699Z,23.10
2018-11-26T17:26:18.993Z,24.93
2018-11-26T17:28:47.210Z,23.37
2018-11-26T17:31:15.445Z,29.37
2018-11-26T17:33:43.697Z,27.33
2018-11-26T17:36:11.947Z,26.20
2018-11-26T17:38:40.234Z,23.93
2018-11-26T17:41:21.520Z,22.70
2018-11-26T17:43:49.762Z,24.77
2018-11-26T17:46:18.069Z,26.37
2018-11-26T17:48:46.342Z,23.97
2018-11-26T17:51:15.005Z,23.20
2018-11-26T17:53:43.302Z,28.53
2018-11-26T17:56:11.752Z,32.20
2018-11-26T17:58:40.058Z,31.33
2018-11-26T18:01:11.914Z,27.43
2018-11-26T18:03:40.214Z,26.53
2018-11-26T18:06:08.487Z,24.73
2018-11-26T18:08:37.098Z,25.40
2018-11-26T18:11:06.353Z,27.83
2018-11-26T18:13:34.668Z,25.23
2018-11-26T18:16:02.979Z,25.63
2018-11-26T18:18:31.232Z,29.03
2018-11-26T18:20:59.507Z,27.52
2018-11-26T18:23:28.042Z,29.67
2018-11-26T18:25:56.321Z,27.07
2018-11-26T18:28:24.594Z,26.00
2018-11-26T18:30:53.167Z,30.60
2018-11-26T18:33:21.801Z,29.37
2018-11-26T18:35:50.575Z,29.87
2018-11-26T18:38:18.837Z,30.93
2018-11-26T18:40:48.958Z,25.73
2018-11-26T18:43:17.221Z,29.80
2018-11-26T18:45:45.501Z,29.43
2018-11-26T18:48:14.850Z,31.00
2018-11-26T18:50:43.625Z,32.37
2018-11-26T18:53:12.341Z,26.40
2018-11-26T18:55:41.540Z,27.33
2018-11-26T18:58:10.229Z,32.53
2018-11-26T19:00:42.489Z,32.20
2018-11-26T19:03:10.954Z,33.63
2018-11-26T19:05:39.450Z,29.47
2018-11-26T19:08:08.070Z,34.27
2018-11-26T19:10:37.768Z,32.47
2018-11-26T19:13:10.003Z,36.23
2018-11-26T19:15:39.977Z,33.67
2018-11-26T19:18:13.157Z,30.40
2018-11-26T19:20:41.369Z,29.57
2018-11-26T19:23:09.677Z,25.47
2018-11-26T19:25:39.433Z,33.73
2018-11-26T19:28:07.688Z,26.40
2018-11-26T19:30:36.090Z,33.87
2018-11-26T19:33:05.542Z,30.60
2018-11-26T19:35:33.826Z,33.13
2018-11-26T19:38:02.338Z,32.60
2018-11-26T19:40:30.625Z,35.40
2018-11-26T19:42:59.883Z,32.97
2018-11-26T19:45:28.394Z,26.80
2018-11-26T19:47:56.860Z,30.87
2018-11-26T19:50:25.381Z,33.50
2018-11-26T19:52:54.227Z,37.00
2018-11-26T19:55:23.874Z,30.80
2018-11-26T19:57:52.931Z,34.40
2018-11-26T20:00:27.497Z,35.93
2018-11-26T20:03:15.105Z,35.00
2018-11-26T20:06:03.566Z,34.63
2018-11-26T20:08:32.070Z,36.33
2018-11-26T20:11:00.742Z,34.93
2018-11-26T20:13:29.039Z,34.83
2018-11-26T20:15:57.787Z,36.30
2018-11-26T20:18:28.503Z,34.30
2018-11-26T20:20:56.694Z,36.80
2018-11-26T20:23:26.398Z,35.80
2018-11-26T20:25:57.836Z,35.50
2018-11-26T20:28:27.889Z,35.90
2018-11-26T20:30:59.238Z,33.30
2018-11-26T20:33:28.382Z,33.17
2018-11-26T20:35:56.786Z,33.77
2018-11-26T20:38:25.233Z,32.67
2018-11-26T20:40:53.589Z,32.57
2018-11-26T20:43:22.702Z,34.37
2018-11-26T20:45:51.047Z,37.97
2018-11-26T20:48:19.412Z,41.60
2018-11-26T20:50:50.703Z,34.97
2018-11-26T20:53:22.969Z,37.63
2018-11-26T20:55:52.033Z,38.70
2018-11-26T20:58:20.990Z,34.57
2018-11-26T21:00:49.619Z,37.77
2018-11-26T21:03:18.523Z,34.10
2018-11-26T21:05:46.986Z,33.27
2018-11-26T21:08:15.738Z,34.13
2018-11-26T21:10:49.860Z,34.77
2018-11-26T21:13:18.556Z,34.20
2018-11-26T21:15:47.801Z,31.00
2018-11-26T21:18:16.204Z,29.83
2018-11-26T21:20:49.338Z,32.40
2018-11-26T21:23:22.392Z,27.93
2018-11-26T21:25:50.844Z,30.50
2018-11-26T21:28:20.427Z,28.37
2018-11-26T21:30:52.059Z,27.77
2018-11-26T21:33:17.918Z,25.10
2018-11-26T21:35:48.688Z,29.00
2018-11-26T21:38:17.094Z,30.40
2018-11-26T21:40:45.575Z,29.77
2018-11-26T21:43:14.129Z,26.70
2018-11-26T21:45:48.985Z,23.93
2018-11-26T21:48:19.104Z,25.47
2018-11-26T21:50:48.150Z,25.77
2018-11-26T21:53:16.385Z,22.13
2018-11-26T21:55:44.653Z,28.50
2018-11-26T21:58:13.257Z,26.53
2018-11-26T22:00:42.223Z,20.77
2018-11-26T22:03:13.506Z,21.47
2018-11-26T22:05:42.813Z,18.23
2018-11-26T22:08:11.701Z,21.53
2018-11-26T22:10:41.415Z,20.70
2018-11-26T22:13:12.252Z,25.73
2018-11-26T22:15:40.690Z,21.33
2018-11-26T22:18:09.486Z,19.43
2018-11-26T22:20:37.994Z,20.60
2018-11-26T22:23:07.402Z,21.97
2018-11-26T22:25:35.816Z,19.90
2018-11-26T22:28:05.592Z,19.77
2018-11-26T22:30:34.934Z,19.60
2018-11-26T22:33:03.414Z,19.50
2018-11-26T22:35:31.774Z,22.03
2018-11-26T22:38:00.092Z,19.47
2018-11-26T22:40:28.316Z,21.80
2018-11-26T22:42:56.570Z,19.80
2018-11-26T22:45:27.556Z,19.07
2018-11-26T22:48:12.661Z,21.30
2018-11-26T22:50:42.066Z,22.80
2018-11-26T22:53:10.445Z,20.90
2018-11-26T22:55:39.690Z,21.87
2018-11-26T22:58:10.206Z,21.03
2018-11-26T23:00:48.002Z,20.30
2018-11-26T23:03:17.497Z,19.30
2018-11-26T23:05:45.710Z,22.77
2018-11-26T23:08:14.041Z,18.97
2018-11-26T23:10:42.361Z,20.80
2018-11-26T23:13:10.586Z,24.17
2018-11-26T23:15:39.433Z,22.00
2018-11-26T23:18:08.134Z,19.33
2018-11-26T23:20:37.369Z,23.90
2018-11-26T23:23:06.178Z,20.47
2018-11-26T23:25:34.459Z,20.53
2018-11-26T23:28:02.676Z,19.07
2018-11-26T23:30:31.545Z,21.10
2018-11-26T23:33:00.912Z,21.10
2018-11-26T23:35:29.129Z,22.90
2018-11-26T23:37:58.087Z,22.87
2018-11-26T23:40:26.421Z,20.97
2018-11-26T23:42:54.645Z,22.80
2018-11-26T23:45:25.103Z,20.83
2018-11-26T23:47:54.029Z,22.87
2018-11-26T23:50:22.265Z,20.37
2018-11-26T23:52:51.205Z,23.87
2018-11-26T23:55:20.484Z,20.17
2018-11-26T23:57:48.785Z,21.80
